M I D A S
Marine Information and Data Acquisition System
Tripno 1685 of the Zeeleeuw from 2009-04-30 07:18:56 to 2009-04-30 13:35:03
Back to CruiseResearch ActivitiesStationsMapUnderway DataData graphs

EquipmentUnitsComment
TimeDGPSUTC
LatitudeDGPSDM.mWGS84
LongitudeDGPSDM.mWGS84
HeadingGyrodeg 
SOGDGPSknotsSpeed over ground
COGDGPSdegCourse over ground
DepthEcho soundermeters200 kHz
Missing or incorrect values are displayed as -999
Navigation data collected by the RV Zeeleeuw from 2009-04-30 07:12:34 to 2009-04-30 13:46:19
Time Latitude Longitude Heading SOG COG Depth
2009-04-30 07:13:41 51°13.671 2°55.925 109.5 1.9 294 -999
2009-04-30 07:14:42 51°13.683 2°55.865 100.5 2.7 284 -999
2009-04-30 07:15:42 51°13.692 2°55.787 89.1 2.7 275 -999
2009-04-30 07:16:41 51°13.698 2°55.758 59.9 1.4 36 13.1
2009-04-30 07:17:41 51°13.715 2°55.767 6.6 0.3 209 12.5
2009-04-30 07:18:42 51°13.711 2°55.76 336.5 2.5 333 4.7
2009-04-30 07:19:42 51°13.774 2°55.69 324.6 5.2 326 10.4
2009-04-30 07:20:42 51°13.848 2°55.635 343.4 5.6 344 10.4
2009-04-30 07:21:42 51°13.959 2°55.576 337.6 7.5 334 10.6
2009-04-30 07:22:42 51°14.075 2°55.471 330.4 9.1 330 10.7
2009-04-30 07:23:41 51°14.21 2°55.334 327 10.3 324 10.6
2009-04-30 07:24:40 51°14.335 2°55.119 309.8 12 307 10.8
2009-04-30 07:25:39 51°14.433 2°54.845 301.6 12.3 300 10.7
2009-04-30 07:26:39 51°14.546 2°54.57 309 12.4 305 10.8
2009-04-30 07:27:39 51°14.684 2°54.333 328.2 12 327 10.5
2009-04-30 07:28:39 51°14.86 2°54.175 334.6 12.1 330 9.6
2009-04-30 07:29:39 51°15.035 2°54.015 334.7 12.2 331 9.4
2009-04-30 07:30:39 51°15.215 2°53.865 336.1 12.2 332 9.6
2009-04-30 07:31:39 51°15.394 2°53.716 337.2 12 333 10.1
2009-04-30 07:32:39 51°15.57 2°53.574 339.2 11.8 335 10.8
2009-04-30 07:33:39 51°15.753 2°53.446 341.9 12 337 11.3
2009-04-30 07:34:39 51°15.939 2°53.319 340.8 12.2 337 12.1
2009-04-30 07:35:39 51°16.126 2°53.192 340 12.2 337 11.8
2009-04-30 07:36:39 51°16.32 2°53.123 0.9 12 358 11.9
2009-04-30 07:37:39 51°16.518 2°53.133 5.8 11.9 1 11.8
2009-04-30 07:38:39 51°16.717 2°53.139 5.5 12 1 11.2
2009-04-30 07:39:39 51°16.916 2°53.145 5.1 11.8 1 8.3
2009-04-30 07:40:39 51°17.114 2°53.15 4.3 12 1 9
2009-04-30 07:41:39 51°17.311 2°53.192 18 11.9 15 9.3
2009-04-30 07:42:39 51°17.492 2°53.315 32.1 11.9 29 9.5
2009-04-30 07:43:39 51°17.663 2°53.474 33.5 11.8 30 9.6
2009-04-30 07:44:39 51°17.834 2°53.628 33.7 11.8 30 9.8
2009-04-30 07:45:39 51°18.005 2°53.781 31.6 11.8 28 10
2009-04-30 07:46:39 51°18.172 2°53.943 40.1 11.7 39 10.2
2009-04-30 07:47:39 51°18.322 2°54.14 44.4 11.6 40 10.3
2009-04-30 07:48:39 51°18.461 2°54.349 50 11.4 47 10.5
2009-04-30 07:49:39 51°18.56 2°54.604 64.5 11.3 63 10.5
2009-04-30 07:50:39 51°18.651 2°54.872 65.4 11.6 63 10.5
2009-04-30 07:51:39 51°18.735 2°55.148 69 11.5 66 10.4
2009-04-30 07:52:39 51°18.815 2°55.424 68.2 11.5 65 10.4
2009-04-30 07:53:39 51°18.897 2°55.699 68 11.5 64 10.3
2009-04-30 07:54:39 51°18.978 2°55.971 67.9 11.3 65 10.4
2009-04-30 07:55:39 51°19.053 2°56.249 69.4 11.4 67 10.3
2009-04-30 07:56:39 51°19.135 2°56.521 67.1 11.3 63 10.1
2009-04-30 07:57:39 51°19.216 2°56.791 68.3 11.3 65 10
2009-04-30 07:58:39 51°19.297 2°57.063 67.6 11.4 64 9.7
2009-04-30 07:59:39 51°19.381 2°57.33 66.8 11.2 64 9.7
2009-04-30 08:00:39 51°19.461 2°57.599 69.8 11.2 65 9.5
2009-04-30 08:01:39 51°19.54 2°57.866 69 11.1 66 9.5
2009-04-30 08:02:39 51°19.611 2°58.136 71.1 11 68 9.4
2009-04-30 08:03:39 51°19.681 2°58.407 71.1 11.1 68 9.2
2009-04-30 08:04:39 51°19.752 2°58.68 70.7 11.1 68 9.2
2009-04-30 08:05:39 51°19.824 2°58.952 70.8 11.1 66 9.2
2009-04-30 08:06:39 51°19.895 2°59.221 71.2 11 67 9.2
2009-04-30 08:07:39 51°19.966 2°59.488 70.5 11 66 9.3
2009-04-30 08:08:39 51°20.039 2°59.756 70.2 11 66 9.2
2009-04-30 08:09:39 51°20.109 3°0.022 71.9 10.9 69 9.2
2009-04-30 08:10:39 51°20.176 3°0.292 73.5 10.9 70 9.2
2009-04-30 08:11:39 51°20.246 3°0.558 70.2 10.8 67 9.1
2009-04-30 08:12:39 51°20.316 3°0.823 70.7 10.8 67 9.2
2009-04-30 08:13:39 51°20.385 3°1.088 71.6 10.8 67 9.1
2009-04-30 08:14:39 51°20.451 3°1.354 70.9 10.8 67 9.1
2009-04-30 08:15:39 51°20.518 3°1.618 71 10.7 68 9
2009-04-30 08:16:39 51°20.584 3°1.884 71.2 10.7 67 8.9
2009-04-30 08:17:39 51°20.653 3°2.147 70.9 10.7 67 9
2009-04-30 08:18:39 51°20.721 3°2.41 70.9 10.7 68 9
2009-04-30 08:19:39 51°20.786 3°2.673 71.1 10.7 69 9
2009-04-30 08:20:39 51°20.852 3°2.936 71.1 10.7 68 9
2009-04-30 08:21:39 51°20.916 3°3.199 71.1 10.6 69 9.1
2009-04-30 08:22:39 51°20.98 3°3.466 72.2 10.7 69 9.2
2009-04-30 08:23:39 51°21.046 3°3.731 70.5 10.7 68 9.4
2009-04-30 08:24:39 51°21.11 3°3.997 72.8 10.7 70 9.6
2009-04-30 08:25:39 51°21.172 3°4.264 71.6 10.7 68 9.7
2009-04-30 08:26:39 51°21.24 3°4.527 70 10.5 67 9.8
2009-04-30 08:27:39 51°21.305 3°4.786 71 10.5 68 9.8
2009-04-30 08:28:39 51°21.368 3°5.048 71.1 10.5 66 9.8
2009-04-30 08:29:39 51°21.428 3°5.308 72.6 10.4 69 9.9
2009-04-30 08:30:39 51°21.489 3°5.569 72.5 10.5 70 9.9
2009-04-30 08:31:39 51°21.553 3°5.826 69.2 9.9 66 10
2009-04-30 08:32:39 51°21.603 3°6.018 72.4 6.4 69 10.2
2009-04-30 08:33:39 51°21.639 3°6.158 69 5.5 65 10.3
2009-04-30 08:34:39 51°21.685 3°6.323 70.3 8.6 68 10.3
2009-04-30 08:35:39 51°21.75 3°6.567 69.2 10.4 68 10.4
2009-04-30 08:36:39 51°21.79 3°6.836 80.3 10.3 81 10.5
2009-04-30 08:37:39 51°21.804 3°7.108 85.7 10.3 87 10.6
2009-04-30 08:38:39 51°21.812 3°7.378 87.7 10.1 87 10.7
2009-04-30 08:39:39 51°21.826 3°7.64 85.4 9.8 82 10.6
2009-04-30 08:40:39 51°21.845 3°7.899 85.3 9.8 86 10.4
2009-04-30 08:41:39 51°21.856 3°8.157 85 9.6 85 10.5
2009-04-30 08:42:39 51°21.865 3°8.413 84.8 9.6 88 10.6
2009-04-30 08:43:39 51°21.85 3°8.595 108.2 4.6 132 10.7
2009-04-30 08:44:39 51°21.768 3°8.587 196.1 6.5 215 10.3
2009-04-30 08:45:39 51°21.726 3°8.439 274.4 5.3 262 10.2
2009-04-30 08:46:39 51°21.722 3°8.313 290.4 4.4 268 10.2
2009-04-30 08:47:39 51°21.726 3°8.207 312.9 3.6 278 10.2
2009-04-30 08:48:39 51°21.753 3°8.122 355.7 3.4 317 10.3
2009-04-30 08:49:39 51°21.798 3°8.086 21.4 2.7 339 10.5
2009-04-30 08:50:39 51°21.828 3°8.063 31.5 1.8 340 10.6
2009-04-30 08:51:39 51°21.888 3°8.085 36.4 3.9 18 10.7
2009-04-30 08:52:39 51°21.936 3°8.117 46.1 2.7 29 10.8
2009-04-30 08:53:39 51°21.973 3°8.154 44.8 2.7 27 10.9
2009-04-30 08:54:39 51°22.024 3°8.159 12 4 343 11
2009-04-30 08:55:39 51°22.084 3°8.088 346.4 4.4 321 11.3
2009-04-30 08:56:39 51°22.137 3°8.017 346.3 3.9 318 11.4
2009-04-30 08:57:39 51°22.182 3°7.949 346 3.6 316 11.5
2009-04-30 08:58:39 51°22.224 3°7.885 346.3 3.5 317 11.6
2009-04-30 08:59:39 51°22.266 3°7.821 345.5 3.5 317 11.6
2009-04-30 09:00:39 51°22.308 3°7.761 346.1 3.4 319 11.7
2009-04-30 09:01:39 51°22.351 3°7.703 346.5 3.3 320 11.8
2009-04-30 09:02:39 51°22.393 3°7.644 346 3.3 320 11.8
2009-04-30 09:03:39 51°22.436 3°7.587 345.7 3.3 320 11.8
2009-04-30 09:04:39 51°22.479 3°7.531 347.2 3.3 321 11.9
2009-04-30 09:05:39 51°22.522 3°7.475 345.6 3.4 320 11.9
2009-04-30 09:06:39 51°22.566 3°7.419 345.9 3.4 322 11.8
2009-04-30 09:07:39 51°22.611 3°7.363 344.8 3.4 321 11.7
2009-04-30 09:08:39 51°22.654 3°7.302 340.8 3.5 318 11.8
2009-04-30 09:09:39 51°22.693 3°7.232 327.6 3.7 306 11.7
2009-04-30 09:10:39 51°22.724 3°7.149 316.5 3.5 296 11.6
2009-04-30 09:11:39 51°22.746 3°7.066 312.6 3.3 292 11.7
2009-04-30 09:12:39 51°22.766 3°6.986 312.9 3.2 291 11.6
2009-04-30 09:13:39 51°22.785 3°6.908 315 3 292 11.5
2009-04-30 09:14:39 51°22.804 3°6.833 316.1 3 293 11.6
2009-04-30 09:15:39 51°22.823 3°6.76 316.2 3 293 11.4
2009-04-30 09:16:39 51°22.843 3°6.685 316.5 3 293 11.4
2009-04-30 09:17:39 51°22.863 3°6.61 316.7 3 293 11.2
2009-04-30 09:18:39 51°22.883 3°6.536 317.9 3 294 11
2009-04-30 09:19:39 51°22.903 3°6.462 317.3 3 294 10.9
2009-04-30 09:20:39 51°22.924 3°6.388 317.8 3 294 11
2009-04-30 09:21:39 51°22.945 3°6.316 317.8 3 294 10.6
2009-04-30 09:22:39 51°22.966 3°6.244 317.8 3 295 10.6
2009-04-30 09:23:39 51°22.987 3°6.172 316.6 3 295 10.5
2009-04-30 09:24:39 51°23.008 3°6.101 320.5 3 297 10.4
2009-04-30 09:25:39 51°23.03 3°6.034 319.4 2.8 296 10.4
2009-04-30 09:26:39 51°23.049 3°5.966 314.2 2.8 292 10.6
2009-04-30 09:27:39 51°23.067 3°5.902 330.6 2.6 302 10.6
2009-04-30 09:28:39 51°23.089 3°5.853 350.7 2 304 10.7
2009-04-30 09:29:39 51°23.104 3°5.812 347.1 1.8 295 10.8
2009-04-30 09:30:39 51°23.114 3°5.769 339.5 1.7 288 10.9
2009-04-30 09:31:39 51°23.121 3°5.725 330.6 1.8 283 10.9
2009-04-30 09:32:39 51°23.131 3°5.635 269.4 5.2 261 10.8
2009-04-30 09:33:39 51°23.063 3°5.458 233.5 10.8 236 10.5
2009-04-30 09:34:39 51°22.959 3°5.17 237.4 13 240 10.6
2009-04-30 09:35:39 51°22.854 3°4.866 238.7 13.1 239 9.6
2009-04-30 09:36:39 51°22.737 3°4.568 235.2 13.2 238 11.9
2009-04-30 09:37:39 51°22.617 3°4.275 234 13.2 236 10
2009-04-30 09:38:39 51°22.498 3°3.979 235.4 13.3 237 10.6
2009-04-30 09:39:39 51°22.378 3°3.681 236 13.2 238 9.8
2009-04-30 09:40:39 51°22.258 3°3.383 235.1 13.3 237 10.2
2009-04-30 09:41:39 51°22.137 3°3.086 235 13.3 236 10.3
2009-04-30 09:42:39 51°22.016 3°2.79 234.8 13.3 237 10.3
2009-04-30 09:43:39 51°21.895 3°2.495 234.9 13.2 236 10.2
2009-04-30 09:44:39 51°21.777 3°2.197 236.8 13.3 238 10.2
2009-04-30 09:45:39 51°21.653 3°1.906 233.7 13.2 236 10.2
2009-04-30 09:46:39 51°21.528 3°1.615 232.8 13.3 234 10.1
2009-04-30 09:47:39 51°21.398 3°1.329 231.6 13.2 234 10
2009-04-30 09:48:39 51°21.261 3°1.055 229.3 13.2 232 9.9
2009-04-30 09:49:39 51°21.126 3°0.779 230.8 13.2 232 9.8
2009-04-30 09:50:39 51°20.993 3°0.499 230.7 13.2 233 9.7
2009-04-30 09:51:39 51°20.861 3°0.219 232.6 13.3 234 9.6
2009-04-30 09:52:39 51°20.731 2°59.931 232.8 13.4 234 9.6
2009-04-30 09:53:39 51°20.6 2°59.644 232.6 13.4 234 9.5
2009-04-30 09:54:39 51°20.465 2°59.36 229.3 13.4 231 9.4
2009-04-30 09:55:39 51°20.322 2°59.086 228.4 13.4 230 9.1
2009-04-30 09:56:39 51°20.18 2°58.812 228.7 13.4 231 9.1
2009-04-30 09:57:39 51°20.037 2°58.539 228.4 13.4 230 9.1
2009-04-30 09:58:39 51°19.9 2°58.259 230.7 13.3 232 9
2009-04-30 09:59:39 51°19.764 2°57.978 230.7 13.4 233 8.8
2009-04-30 10:00:39 51°19.628 2°57.698 230.4 13.3 233 8.7
2009-04-30 10:01:39 51°19.49 2°57.419 229.9 13.4 231 8.7
2009-04-30 10:02:39 51°19.353 2°57.138 230.5 13.3 232 8.7
2009-04-30 10:03:39 51°19.217 2°56.859 230.6 13.3 232 8.8
2009-04-30 10:04:39 51°19.081 2°56.579 230.9 13.3 232 8.7
2009-04-30 10:05:39 51°18.946 2°56.301 230.9 13.2 232 8.9
2009-04-30 10:06:39 51°18.81 2°56.025 230.6 13.2 232 8.8
2009-04-30 10:07:39 51°18.674 2°55.75 230.4 13.2 232 8.8
2009-04-30 10:08:39 51°18.538 2°55.476 230.7 13.1 233 8.8
2009-04-30 10:09:39 51°18.401 2°55.206 230 13.1 231 8.5
2009-04-30 10:10:39 51°18.277 2°54.92 238.9 13 237 8.3
2009-04-30 10:11:39 51°18.163 2°54.625 238.8 13.1 238 8.3
2009-04-30 10:12:39 51°18.046 2°54.333 238.4 13 237 8.3
2009-04-30 10:13:39 51°17.928 2°54.046 237.4 12.9 238 8.4
2009-04-30 10:14:39 51°17.812 2°53.759 232.7 12.8 232 8.4
2009-04-30 10:15:39 51°17.645 2°53.556 204.1 12.6 205 8.3
2009-04-30 10:16:39 51°17.444 2°53.45 194.4 12.7 197 8
2009-04-30 10:17:39 51°17.244 2°53.341 201.2 12.8 204 7.6
2009-04-30 10:18:39 51°17.052 2°53.202 203.3 12.7 205 5.3
2009-04-30 10:19:39 51°16.86 2°53.077 195.4 12.4 195 7.3
2009-04-30 10:20:39 51°16.651 2°53.064 170.7 12.4 174 10.1
2009-04-30 10:21:39 51°16.452 2°53.142 158.6 12.4 165 10.5
2009-04-30 10:22:39 51°16.252 2°53.223 159.2 12.3 166 10.5
2009-04-30 10:23:39 51°16.053 2°53.298 159.7 12.3 166 10.3
2009-04-30 10:24:39 51°15.853 2°53.367 161.2 12.3 168 10.3
2009-04-30 10:25:39 51°15.655 2°53.446 158.2 12.3 166 9.7
2009-04-30 10:26:39 51°15.457 2°53.526 158.5 12.2 167 9.2
2009-04-30 10:27:39 51°15.26 2°53.606 159.5 12.2 166 8.6
2009-04-30 10:28:39 51°15.064 2°53.69 158.6 12.2 164 8.4
2009-04-30 10:29:39 51°14.867 2°53.774 159.3 12.2 164 8.3
2009-04-30 10:30:39 51°14.668 2°53.843 167.9 12.3 172 9.2
2009-04-30 10:31:39 51°14.464 2°53.831 187.2 12.4 194 8.7
2009-04-30 10:32:39 51°14.289 2°53.654 226.2 12.7 228 8.4
2009-04-30 10:33:39 51°14.176 2°53.364 245 13 244 8.7
2009-04-30 10:34:39 51°14.079 2°53.052 243.2 13.2 242 9
2009-04-30 10:35:39 51°13.97 2°52.746 240.7 13.3 241 9.3
2009-04-30 10:36:39 51°13.856 2°52.445 239.6 13.3 239 9.4
2009-04-30 10:37:39 51°13.741 2°52.146 238.5 13.3 238 9.5
2009-04-30 10:38:39 51°13.623 2°51.847 237.8 13.3 238 9.6
2009-04-30 10:39:39 51°13.506 2°51.548 237.6 13.3 237 9.7
2009-04-30 10:40:39 51°13.386 2°51.251 238.3 13.2 238 9.8
2009-04-30 10:41:39 51°13.265 2°50.961 234.7 13.1 235 9.8
2009-04-30 10:42:39 51°13.144 2°50.675 237.4 13.1 238 9.9
2009-04-30 10:43:39 51°13.031 2°50.377 238.9 13.1 239 10
2009-04-30 10:44:39 51°12.915 2°50.081 237.6 13.2 237 10.1
2009-04-30 10:45:39 51°12.798 2°49.782 237.9 13.4 239 10.1
2009-04-30 10:46:39 51°12.68 2°49.479 237.6 13.5 238 10.2
2009-04-30 10:47:39 51°12.56 2°49.177 235.6 13.5 235 10.2
2009-04-30 10:48:39 51°12.44 2°48.876 237.8 13.5 237 10
2009-04-30 10:49:39 51°12.318 2°48.577 237 13.4 237 10
2009-04-30 10:50:39 51°12.195 2°48.28 235.7 13.3 236 9.9
2009-04-30 10:51:39 51°12.087 2°47.973 244.9 13.3 244 9.9
2009-04-30 10:52:39 51°12 2°47.649 248.6 13.4 247 10
2009-04-30 10:53:39 51°11.918 2°47.317 249.4 13.4 249 10.3
2009-04-30 10:54:39 51°11.83 2°46.991 246.1 13.4 245 10.3
2009-04-30 10:55:39 51°11.739 2°46.669 246.5 13.3 246 10.5
2009-04-30 10:56:39 51°11.65 2°46.346 246.2 13.3 247 10.6
2009-04-30 10:57:39 51°11.564 2°46.025 247.4 13.1 247 10.6
2009-04-30 10:58:39 51°11.479 2°45.704 248.7 13.2 248 10.6
2009-04-30 10:59:39 51°11.404 2°45.378 252.7 13.1 252 10.6
2009-04-30 11:00:39 51°11.34 2°45.045 255.5 13.2 254 10.7
2009-04-30 11:01:39 51°11.276 2°44.711 255.6 13.2 253 10.7
2009-04-30 11:02:39 51°11.201 2°44.382 249.6 13.2 249 10.7
2009-04-30 11:03:39 51°11.11 2°44.064 243.5 13.2 244 10.6
2009-04-30 11:04:39 51°11.01 2°43.752 243.5 13.2 244 10.4
2009-04-30 11:05:39 51°10.911 2°43.441 243.2 13.2 243 10.1
2009-04-30 11:06:39 51°10.813 2°43.131 243.9 13.1 244 9.9
2009-04-30 11:07:39 51°10.716 2°42.82 243.6 13.1 243 9.8
2009-04-30 11:08:39 51°10.614 2°42.515 242.4 13 242 9.5
2009-04-30 11:09:39 51°10.52 2°42.207 243.9 12.8 243 9.3
2009-04-30 11:10:39 51°10.427 2°41.901 246 12.8 245 9.2
2009-04-30 11:11:39 51°10.336 2°41.595 246.2 12.8 245 9.1
2009-04-30 11:12:39 51°10.248 2°41.284 246.5 12.8 246 9.1
2009-04-30 11:13:39 51°10.157 2°40.976 244.3 12.8 244 9.1
2009-04-30 11:14:39 51°10.065 2°40.671 245.7 12.8 244 9.1
2009-04-30 11:15:39 51°9.972 2°40.369 244.8 12.7 244 9.1
2009-04-30 11:16:39 51°9.882 2°40.062 247.2 12.8 246 9.1
2009-04-30 11:17:39 51°9.795 2°39.754 246.3 12.7 245 9.1
2009-04-30 11:18:39 51°9.703 2°39.45 243.9 12.7 244 9.1
2009-04-30 11:19:39 51°9.613 2°39.145 245.8 12.8 245 9.2
2009-04-30 11:20:39 51°9.52 2°38.843 243.5 12.8 242 9.2
2009-04-30 11:21:39 51°9.435 2°38.559 245.8 10.9 245 9.3
2009-04-30 11:22:39 51°9.371 2°38.35 244.3 7 243 9.5
2009-04-30 11:23:39 51°9.327 2°38.212 244.6 5.1 243 9.4
2009-04-30 11:24:39 51°9.289 2°38.089 246.3 5.7 244 9.3
2009-04-30 11:25:39 51°9.245 2°37.943 245.8 6.4 243 9.1
2009-04-30 11:26:39 51°9.197 2°37.789 245.4 6.6 244 9.1
2009-04-30 11:27:39 51°9.149 2°37.632 245.6 6.2 243 9
2009-04-30 11:28:39 51°9.117 2°37.504 259.2 4.4 255 9
2009-04-30 11:29:39 51°9.106 2°37.406 271 3.4 261 9
2009-04-30 11:30:39 51°9.095 2°37.327 262.1 2.9 254 9
2009-04-30 11:31:39 51°9.082 2°37.253 261.8 3.1 254 9
2009-04-30 11:32:39 51°9.069 2°37.167 267.9 3.3 258 8.9
2009-04-30 11:33:39 51°9.06 2°37.084 269.1 3.2 259 9
2009-04-30 11:34:39 51°9.05 2°37.002 269 3.1 259 9
2009-04-30 11:35:39 51°9.04 2°36.921 269.3 3.1 259 9.1
2009-04-30 11:36:39 51°9.03 2°36.84 268.4 3.1 258 9.2
2009-04-30 11:37:39 51°9.02 2°36.76 268.8 3.1 259 9.2
2009-04-30 11:38:39 51°9.011 2°36.68 268.6 3.1 259 9.3
2009-04-30 11:39:39 51°9.003 2°36.598 269.6 3.1 260 9.5
2009-04-30 11:40:39 51°8.994 2°36.517 268.8 3.1 260 9.7
2009-04-30 11:41:39 51°8.985 2°36.436 269.2 3.1 260 9.9
2009-04-30 11:42:39 51°8.976 2°36.354 268.5 3.2 259 10.1
2009-04-30 11:43:39 51°8.965 2°36.272 267.9 3.2 259 10.3
2009-04-30 11:44:39 51°8.954 2°36.189 267.2 3.2 258 10.6
2009-04-30 11:45:39 51°8.943 2°36.105 267.6 3.3 257 11
2009-04-30 11:46:39 51°8.931 2°36.02 267.9 3.3 258 11.2
2009-04-30 11:47:39 51°8.92 2°35.935 267.9 3.3 258 11.7
2009-04-30 11:48:39 51°8.909 2°35.849 269.1 3.3 258 12.1
2009-04-30 11:49:39 51°8.897 2°35.762 269 3.4 258 12.6
2009-04-30 11:50:39 51°8.884 2°35.676 262 3.4 254 12.9
2009-04-30 11:51:39 51°8.866 2°35.59 254.1 3.4 249 13.1
2009-04-30 11:52:39 51°8.844 2°35.507 248.2 3.4 247 13.3
2009-04-30 11:53:39 51°8.822 2°35.426 248.1 3.3 246 13.5
2009-04-30 11:54:39 51°8.8 2°35.347 249.2 3.2 247 13.6
2009-04-30 11:55:39 51°8.779 2°35.271 249.9 3.1 247 13.8
2009-04-30 11:56:39 51°8.758 2°35.196 250.3 3.1 247 13.8
2009-04-30 11:57:39 51°8.738 2°35.122 250.3 3.1 247 14
2009-04-30 11:58:39 51°8.718 2°35.048 250.5 3.1 247 14.1
2009-04-30 11:59:39 51°8.697 2°34.975 250.3 3 246 14.2
2009-04-30 12:00:39 51°8.677 2°34.901 250.5 3.1 246 14.4
2009-04-30 12:01:39 51°8.657 2°34.827 250.7 3 247 14.6
2009-04-30 12:02:39 51°8.638 2°34.755 255.4 2.8 248 14.9
2009-04-30 12:03:39 51°8.624 2°34.686 269.7 2.7 256 15.2
2009-04-30 12:04:39 51°8.621 2°34.613 310.7 2.7 276 15.6
2009-04-30 12:05:39 51°8.625 2°34.553 328.2 2 273 15.9
2009-04-30 12:06:39 51°8.625 2°34.501 322.7 1.9 264 16.1
2009-04-30 12:07:39 51°8.62 2°34.451 314.3 1.9 259 16.3
2009-04-30 12:08:39 51°8.612 2°34.402 305.2 1.9 254 16.3
2009-04-30 12:09:39 51°8.603 2°34.352 299.5 2.2 258 16.4
2009-04-30 12:10:39 51°8.598 2°34.296 312.8 2.7 281 16.3
2009-04-30 12:11:39 51°8.639 2°34.27 39.9 3.2 38 16
2009-04-30 12:12:39 51°8.675 2°34.376 62.8 5.6 62 16.4
2009-04-30 12:13:39 51°8.721 2°34.515 63.3 6.1 62 16.2
2009-04-30 12:14:39 51°8.767 2°34.665 67.8 7.2 68 16.2
2009-04-30 12:15:39 51°8.822 2°34.893 68.4 10.2 67 15.9
2009-04-30 12:16:39 51°8.892 2°35.144 67.6 10.5 67 15.7
2009-04-30 12:17:39 51°8.959 2°35.402 66.8 10.6 65 15.5
2009-04-30 12:18:39 51°9.037 2°35.651 64.2 10.6 63 15.5
2009-04-30 12:19:39 51°9.117 2°35.901 64.7 10.7 64 15.4
2009-04-30 12:20:39 51°9.192 2°36.157 64.5 10.7 63 15.2
2009-04-30 12:21:39 51°9.26 2°36.375 63.7 6.1 61 15.4
2009-04-30 12:22:39 51°9.301 2°36.447 37.3 2.4 28 15.4
2009-04-30 12:23:39 51°9.337 2°36.468 41.8 3.3 43 15.5
2009-04-30 12:24:39 51°9.396 2°36.624 62.2 9.9 62 15.5
2009-04-30 12:25:39 51°9.472 2°36.874 68 10.7 67 15.5
2009-04-30 12:26:39 51°9.534 2°37.14 69.9 10.8 70 14.9
2009-04-30 12:27:39 51°9.599 2°37.407 67.7 10.8 66 14.8
2009-04-30 12:28:39 51°9.664 2°37.673 68.9 10.8 69 14.4
2009-04-30 12:29:39 51°9.73 2°37.937 67.9 10.7 68 14.1
2009-04-30 12:30:39 51°9.799 2°38.201 69 10.8 68 13.9
2009-04-30 12:31:39 51°9.867 2°38.465 69 10.8 69 13.5
2009-04-30 12:32:39 51°9.933 2°38.732 69 10.8 69 13.4
2009-04-30 12:33:39 51°9.999 2°38.997 68.6 10.7 68 13.2
2009-04-30 12:34:39 51°10.068 2°39.258 66.6 10.7 66 13
2009-04-30 12:35:39 51°10.137 2°39.519 66.9 10.7 67 12.7
2009-04-30 12:36:39 51°10.205 2°39.782 68.6 10.8 68 12.5
2009-04-30 12:37:39 51°10.276 2°40.046 67.1 10.8 66 12.4
2009-04-30 12:38:39 51°10.343 2°40.313 70.2 10.9 71 12.3
2009-04-30 12:39:39 51°10.402 2°40.592 73.6 11.2 73 12.1
2009-04-30 12:40:39 51°10.461 2°40.871 71.7 11 71 12
2009-04-30 12:41:39 51°10.518 2°41.148 73.8 11 76 11.9
2009-04-30 12:42:39 51°10.519 2°41.437 96.6 11.1 98 11.6
2009-04-30 12:43:39 51°10.484 2°41.73 99.6 11.3 102 11
2009-04-30 12:44:39 51°10.464 2°42.02 86.2 10.8 86 10.2
2009-04-30 12:45:39 51°10.529 2°42.282 62.5 10.8 60 10.2
2009-04-30 12:46:39 51°10.617 2°42.533 63.2 11 62 10.5
2009-04-30 12:47:39 51°10.701 2°42.794 65.3 11 64 10.7
2009-04-30 12:48:39 51°10.78 2°43.057 65.4 11 64 10.9
2009-04-30 12:49:39 51°10.857 2°43.32 66.6 10.9 65 11
2009-04-30 12:50:39 51°10.932 2°43.585 67 11 67 11.2
2009-04-30 12:51:39 51°11.007 2°43.852 67.8 11.1 66 11.3
2009-04-30 12:52:39 51°11.08 2°44.123 66.9 11.1 66 11.3
2009-04-30 12:53:39 51°11.158 2°44.386 66.4 10.9 65 11.4
2009-04-30 12:54:39 51°11.23 2°44.651 69.7 10.8 68 11.7
2009-04-30 12:55:39 51°11.291 2°44.922 70.6 10.9 69 11.7
2009-04-30 12:56:39 51°11.365 2°45.187 66.9 10.9 66 11.8
2009-04-30 12:57:39 51°11.444 2°45.447 64.5 10.8 62 11.9
2009-04-30 12:58:39 51°11.526 2°45.701 65.2 10.8 63 12.2
2009-04-30 12:59:39 51°11.606 2°45.957 65.8 10.7 64 12.3
2009-04-30 13:00:39 51°11.685 2°46.209 64 10.7 62 12.4
2009-04-30 13:01:39 51°11.762 2°46.464 65.8 10.7 64 12.5
2009-04-30 13:02:39 51°11.843 2°46.714 63.1 10.6 61 12.4
2009-04-30 13:03:39 51°11.927 2°46.961 63.2 10.6 62 12.6
2009-04-30 13:04:39 51°12.009 2°47.212 65.2 10.7 63 12.6
2009-04-30 13:05:39 51°12.088 2°47.466 65.5 10.7 64 12.6
2009-04-30 13:06:39 51°12.169 2°47.72 64.8 10.8 62 12.5
2009-04-30 13:07:39 51°12.256 2°47.967 61.4 10.6 59 12.5
2009-04-30 13:08:39 51°12.343 2°48.213 63.4 10.7 62 12.5
2009-04-30 13:09:39 51°12.426 2°48.464 64.5 10.7 63 12.3
2009-04-30 13:10:39 51°12.514 2°48.71 61.2 10.7 60 12.2
2009-04-30 13:11:39 51°12.604 2°48.959 62.5 11 62 12.1
2009-04-30 13:12:39 51°12.689 2°49.221 62.7 11.1 61 12.1
2009-04-30 13:13:39 51°12.779 2°49.471 62.7 10.9 61 12
2009-04-30 13:14:39 51°12.867 2°49.724 63.1 10.8 62 11.9
2009-04-30 13:15:39 51°12.951 2°49.977 63.2 10.8 62 11.8
2009-04-30 13:16:39 51°13.043 2°50.222 60.6 10.7 59 11.7
2009-04-30 13:17:39 51°13.13 2°50.473 63.9 10.9 62 11.6
2009-04-30 13:18:39 51°13.216 2°50.726 61.9 10.9 60 11.5
2009-04-30 13:19:39 51°13.305 2°50.975 61.7 10.8 60 11.5
2009-04-30 13:20:39 51°13.395 2°51.223 61.7 10.8 60 11.4
2009-04-30 13:21:39 51°13.488 2°51.467 59.4 10.8 58 11.3
2009-04-30 13:22:39 51°13.584 2°51.71 60.3 10.8 59 11.3
2009-04-30 13:23:39 51°13.677 2°51.955 60.5 10.8 58 11.2
2009-04-30 13:24:39 51°13.77 2°52.201 60.7 10.8 59 11.1
2009-04-30 13:25:39 51°13.861 2°52.448 61.6 10.8 59 11.1
2009-04-30 13:26:39 51°13.953 2°52.695 61.1 10.9 60 11
2009-04-30 13:27:39 51°14.043 2°52.946 61.1 10.9 60 10.9
2009-04-30 13:28:39 51°14.133 2°53.198 62.5 10.9 62 10.6
2009-04-30 13:29:39 51°14.215 2°53.454 64.8 10.8 64 10.3
2009-04-30 13:30:39 51°14.295 2°53.709 64.7 10.8 63 10.1
2009-04-30 13:31:39 51°14.362 2°53.973 73.3 10.8 72 10.1
2009-04-30 13:32:39 51°14.4 2°54.254 81.9 10.9 83 9.9
2009-04-30 13:33:39 51°14.416 2°54.544 87.3 11.1 90 10.9
2009-04-30 13:34:39 51°14.392 2°54.836 101.9 11.2 103 10.5
2009-04-30 13:35:39 51°14.323 2°55.116 119.8 11.6 121 11
2009-04-30 13:36:40 51°14.2 2°55.332 139.7 10 142 11.1
2009-04-30 13:37:43 51°14.059 2°55.464 151.4 8.3 153 10.8
2009-04-30 13:38:42 51°13.956 2°55.555 150.6 6.8 151 11
2009-04-30 13:39:43 51°13.853 2°55.628 158.9 6.5 158 -999
2009-04-30 13:40:43 51°13.767 2°55.688 152.1 4.8 150 10.9
2009-04-30 13:41:41 51°13.721 2°55.758 126.4 3.6 125 12.8
2009-04-30 13:42:39 51°13.69 2°55.833 120.1 3.4 118 9.3
2009-04-30 13:43:39 51°13.673 2°55.909 106 2.3 104 7.8
2009-04-30 13:44:39 51°13.665 2°55.95 119.8 0.8 116 6.3
2009-04-30 13:45:39 51°13.663 2°55.958 125.3 0.2 83 6.2